EDDC/DRS METAR and TAF weather

Enter ICAO airport designator
Station Type Date Time Source
EDDC METAR 2019/07/20 20:20 UTC NOAA

EDDC 202020Z 16007KT CAVOK 26/15 Q1012


Station Type Date Time Source
EDDC Decoded METAR 2019/07/20 20:20 UTC NOAA

Dresden-Klotzsche, Germany (EDDC) 51-08N 013-45E 232M
Jul 20, 2019 - 04:20 PM EDT / 2019.07.20 2020 UTC
Wind: from the SSE (160 degrees) at 8 MPH (7 KT):0
Visibility: greater than 7 mile(s):0
Temperature: 78 F (26 C)
Dew Point: 59 F (15 C)
Relative Humidity: 50%
Pressure (altimeter): 29.88 in. Hg (1012 hPa)
ob: EDDC 202020Z 16007KT CAVOK 26/15 Q1012
cycle: 20

Station Type Date Time Source
EDDC TAF 2019/07/20 18:27 UTC NOAA

TAF EDDC 201700Z 2018/2118 16006KT CAVOK PROB40
TEMPO 2020/2022 22020G35KT 4000 TSRA BKN020CB
BECMG 2100/2103 22006KT PROB30
TEMPO 2100/2103 -TSRA BKN020CB
BECMG 2106/2108 28009KT PROB30
TEMPO 2108/2111 SHRA BKN013 BKN020CB

Example: see airport list